createdAt,value
2023-05-21T00:00:24.394Z,13.41
2023-05-21T00:02:51.589Z,13.35
2023-05-21T00:05:18.414Z,13.28
2023-05-21T00:07:46.509Z,13.23
2023-05-21T00:10:13.245Z,13.17
2023-05-21T00:12:41.152Z,13.14
2023-05-21T00:15:08.584Z,13.12
2023-05-21T00:17:36.229Z,13.09
2023-05-21T00:20:06.749Z,13.06
2023-05-21T00:22:35.654Z,13.05
2023-05-21T00:25:04.857Z,13.04
2023-05-21T00:27:32.005Z,13.03
2023-05-21T00:29:59.083Z,13.00
2023-05-21T00:32:25.826Z,12.98
2023-05-21T00:34:52.540Z,12.95
2023-05-21T00:37:20.191Z,12.91
2023-05-21T00:39:46.961Z,12.88
2023-05-21T00:42:17.771Z,12.87
2023-05-21T00:44:44.927Z,12.84
2023-05-21T00:47:12.976Z,12.83
2023-05-21T00:49:39.778Z,12.81
2023-05-21T00:52:06.965Z,12.79
2023-05-21T00:54:34.232Z,12.76
2023-05-21T00:57:01.140Z,12.74
2023-05-21T00:59:28.112Z,12.71
2023-05-21T01:01:55.642Z,12.70
2023-05-21T01:04:22.972Z,12.68
2023-05-21T01:06:52.761Z,12.66
2023-05-21T01:09:22.212Z,12.61
2023-05-21T01:11:50.663Z,12.56
2023-05-21T01:14:18.200Z,12.53
2023-05-21T01:16:47.519Z,12.51
2023-05-21T01:19:16.269Z,12.49
2023-05-21T01:21:50.874Z,12.48
2023-05-21T01:24:18.043Z,12.47
2023-05-21T01:26:48.352Z,12.45
2023-05-21T01:29:15.329Z,12.43
2023-05-21T01:31:49.726Z,12.41
2023-05-21T01:34:16.540Z,12.43
2023-05-21T01:36:46.670Z,12.42
2023-05-21T01:39:16.676Z,12.40
2023-05-21T01:41:44.325Z,12.38
2023-05-21T01:44:10.992Z,12.37
2023-05-21T01:46:38.332Z,12.36
2023-05-21T01:49:05.674Z,12.34
2023-05-21T01:51:32.926Z,12.32
2023-05-21T01:53:59.612Z,12.28
2023-05-21T01:56:27.845Z,12.25
2023-05-21T01:58:56.322Z,12.21
2023-05-21T02:01:23.510Z,12.16
2023-05-21T02:03:50.356Z,12.12
2023-05-21T02:06:17.096Z,12.08
2023-05-21T02:08:45.072Z,12.04
2023-05-21T02:11:11.855Z,12.00
2023-05-21T02:13:41.976Z,11.95
2023-05-21T02:16:11.323Z,11.90
2023-05-21T02:18:38.165Z,11.84
2023-05-21T02:21:05.472Z,11.79
2023-05-21T02:23:32.336Z,11.75
2023-05-21T02:25:59.102Z,11.71
2023-05-21T02:28:26.663Z,11.67
2023-05-21T02:30:53.565Z,11.63
2023-05-21T02:33:22.488Z,11.61
2023-05-21T02:35:49.372Z,11.59
2023-05-21T02:38:19.770Z,11.56
2023-05-21T02:40:46.429Z,11.55
2023-05-21T02:43:14.819Z,11.53
2023-05-21T02:45:43.366Z,11.54
2023-05-21T02:48:10.814Z,11.54
2023-05-21T02:50:39.806Z,11.54
2023-05-21T02:53:07.317Z,11.54
2023-05-21T02:55:35.210Z,11.53
2023-05-21T02:58:02.315Z,11.52
2023-05-21T03:00:29.188Z,11.50
2023-05-21T03:02:56.096Z,11.48
2023-05-21T03:05:23.809Z,11.47
2023-05-21T03:07:50.936Z,11.45
2023-05-21T03:10:17.669Z,11.46
2023-05-21T03:12:44.962Z,11.46
2023-05-21T03:15:14.962Z,11.46
2023-05-21T03:17:41.746Z,11.44
2023-05-21T03:20:15.594Z,11.42
2023-05-21T03:22:43.812Z,11.43
2023-05-21T03:25:11.652Z,11.43
2023-05-21T03:27:39.112Z,11.43
2023-05-21T03:30:09.328Z,11.45
2023-05-21T03:32:44.533Z,11.48
2023-05-21T03:35:11.112Z,11.49
2023-05-21T03:37:38.649Z,11.49
2023-05-21T03:40:06.731Z,11.50
2023-05-21T03:42:33.506Z,11.52
2023-05-21T03:45:00.214Z,11.52
2023-05-21T03:47:46.827Z,11.55
2023-05-21T03:50:14.038Z,11.59
2023-05-21T03:52:41.018Z,11.62
2023-05-21T03:55:08.214Z,11.64
2023-05-21T03:57:35.425Z,11.66
2023-05-21T04:00:03.601Z,11.68
2023-05-21T04:02:32.621Z,11.71
2023-05-21T04:04:59.455Z,11.73
2023-05-21T04:07:26.632Z,11.75
2023-05-21T04:09:53.428Z,11.79
2023-05-21T04:12:20.344Z,11.80
2023-05-21T04:14:48.023Z,11.85
2023-05-21T04:20:26.234Z,12.07
2023-05-21T04:22:52.963Z,12.24
2023-05-21T04:25:21.384Z,12.40
2023-05-21T04:27:49.426Z,12.52
2023-05-21T04:30:16.548Z,12.61
2023-05-21T04:32:45.198Z,12.67
2023-05-21T04:35:14.657Z,12.73
2023-05-21T04:37:41.588Z,12.79
2023-05-21T04:40:09.217Z,12.87
2023-05-21T04:42:36.030Z,12.95
2023-05-21T04:45:03.155Z,13.02
2023-05-21T04:47:34.784Z,13.07
2023-05-21T04:50:02.074Z,13.18
2023-05-21T04:52:28.822Z,13.41
2023-05-21T04:54:55.538Z,13.61
2023-05-21T04:57:23.992Z,13.71
2023-05-21T04:59:52.045Z,13.81
2023-05-21T05:02:18.717Z,13.90
2023-05-21T05:04:45.936Z,14.02
2023-05-21T05:07:13.087Z,14.13
2023-05-21T05:09:39.853Z,14.18
2023-05-21T05:12:07.131Z,14.18
2023-05-21T05:14:33.807Z,14.17
2023-05-21T05:17:01.083Z,14.16
2023-05-21T05:19:28.750Z,14.17
2023-05-21T05:21:55.582Z,14.21
2023-05-21T05:24:22.198Z,14.25
2023-05-21T05:26:49.064Z,14.29
2023-05-21T05:29:16.091Z,14.33
2023-05-21T05:31:42.862Z,14.35
2023-05-21T05:34:09.664Z,14.40
2023-05-21T05:36:36.243Z,14.46
2023-05-21T05:39:02.966Z,14.52
2023-05-21T05:41:29.943Z,14.61
2023-05-21T05:43:56.667Z,14.64
2023-05-21T05:46:25.425Z,14.68
2023-05-21T05:48:52.496Z,14.74
2023-05-21T05:51:19.226Z,14.78
2023-05-21T05:53:45.972Z,14.84
2023-05-21T05:56:12.767Z,14.88
2023-05-21T05:58:40.117Z,14.92
2023-05-21T06:01:09.712Z,15.00
2023-05-21T06:03:36.602Z,15.09
2023-05-21T06:06:10.994Z,15.15
2023-05-21T06:08:39.974Z,15.24
2023-05-21T06:11:06.952Z,15.31
2023-05-21T06:13:33.851Z,15.39
2023-05-21T06:16:03.344Z,15.47
2023-05-21T06:18:30.458Z,15.57
2023-05-21T06:20:57.136Z,15.66
2023-05-21T06:23:24.170Z,15.74
2023-05-21T06:25:50.913Z,15.79
2023-05-21T06:28:18.915Z,15.85
2023-05-21T06:30:45.872Z,15.92
2023-05-21T06:33:12.618Z,16.02
2023-05-21T06:35:39.913Z,16.13
2023-05-21T06:38:08.396Z,16.23
2023-05-21T06:40:35.696Z,16.32
2023-05-21T06:43:04.206Z,16.38
2023-05-21T06:45:57.136Z,16.47
2023-05-21T06:48:36.220Z,16.58
2023-05-21T06:51:03.253Z,16.67
2023-05-21T06:53:29.915Z,16.73
2023-05-21T06:55:56.607Z,16.78
2023-05-21T06:58:35.303Z,16.82
2023-05-21T07:01:02.317Z,16.82
2023-05-21T07:03:29.737Z,16.88
2023-05-21T07:05:57.234Z,16.92
2023-05-21T07:08:23.829Z,16.99
2023-05-21T07:10:50.821Z,17.06
2023-05-21T07:13:17.570Z,17.11
2023-05-21T07:15:44.540Z,17.17
2023-05-21T07:18:11.634Z,17.23
2023-05-21T07:20:39.141Z,17.31
2023-05-21T07:23:06.406Z,17.41
2023-05-21T07:25:36.031Z,17.51
2023-05-21T07:28:05.225Z,17.62
2023-05-21T07:30:33.437Z,17.71
2023-05-21T07:33:01.149Z,17.76
2023-05-21T07:35:28.645Z,17.76
2023-05-21T07:37:55.294Z,17.79
2023-05-21T07:40:21.955Z,17.82
2023-05-21T07:42:48.688Z,17.84
2023-05-21T07:45:15.430Z,17.89
2023-05-21T07:47:45.119Z,17.93
2023-05-21T07:50:12.326Z,17.97
2023-05-21T07:52:39.343Z,18.02
2023-05-21T07:55:06.864Z,18.07
2023-05-21T07:57:35.239Z,18.12
2023-05-21T08:00:12.497Z,18.15
2023-05-21T08:02:47.967Z,18.18
2023-05-21T08:05:15.981Z,18.20
2023-05-21T08:07:43.107Z,18.25
2023-05-21T08:10:09.942Z,18.31
2023-05-21T08:12:36.984Z,18.40
2023-05-21T08:15:05.689Z,18.50
2023-05-21T08:17:34.009Z,18.60
2023-05-21T08:20:00.713Z,18.66
2023-05-21T08:22:27.853Z,18.73
2023-05-21T08:24:54.889Z,18.83
2023-05-21T08:27:21.748Z,18.91
2023-05-21T08:29:48.355Z,19.04
2023-05-21T08:32:16.225Z,19.15
2023-05-21T08:34:43.233Z,19.23
2023-05-21T08:37:21.401Z,19.33
2023-05-21T08:40:00.183Z,19.50
2023-05-21T08:42:46.928Z,19.65
2023-05-21T08:45:37.540Z,19.83
2023-05-21T08:48:05.428Z,19.90
2023-05-21T08:50:32.769Z,19.98
2023-05-21T08:53:07.518Z,20.08
2023-05-21T08:55:43.215Z,20.25
2023-05-21T08:58:10.525Z,20.41
2023-05-21T09:00:38.753Z,20.62
2023-05-21T09:03:10.882Z,20.84
2023-05-21T09:05:41.688Z,21.11
2023-05-21T09:08:19.388Z,21.39
2023-05-21T09:11:00.297Z,21.71
2023-05-21T09:13:33.128Z,21.95
2023-05-21T09:16:03.611Z,22.10
2023-05-21T09:18:30.855Z,22.33
2023-05-21T09:21:27.141Z,22.83
2023-05-21T09:23:57.945Z,23.42
2023-05-21T09:26:25.932Z,24.10
2023-05-21T09:28:59.500Z,24.80
2023-05-21T09:31:26.673Z,25.41
2023-05-21T09:33:55.120Z,25.97
2023-05-21T09:36:22.404Z,26.47
2023-05-21T09:38:52.414Z,26.87
2023-05-21T09:41:22.153Z,27.27
2023-05-21T09:43:49.660Z,27.56
2023-05-21T09:46:16.485Z,27.78
2023-05-21T09:48:43.321Z,28.06
2023-05-21T09:51:15.554Z,28.37
2023-05-21T09:54:02.594Z,28.61
2023-05-21T09:56:31.588Z,28.82
2023-05-21T09:58:59.907Z,28.85
2023-05-21T10:01:26.801Z,28.96
2023-05-21T10:03:56.124Z,29.19
2023-05-21T10:06:30.566Z,29.40
2023-05-21T10:08:59.732Z,29.62
2023-05-21T10:11:30.210Z,29.94
2023-05-21T10:14:08.615Z,30.12
2023-05-21T10:16:36.053Z,30.22
2023-05-21T10:19:03.797Z,30.41
2023-05-21T10:21:30.567Z,30.65
2023-05-21T10:23:57.194Z,30.87
2023-05-21T10:26:24.236Z,31.08
2023-05-21T10:28:51.679Z,31.29
2023-05-21T10:31:18.640Z,31.41
2023-05-21T10:33:46.789Z,31.50
2023-05-21T10:36:15.884Z,31.53
2023-05-21T10:38:45.329Z,31.56
2023-05-21T10:41:12.007Z,31.52
2023-05-21T10:43:52.587Z,31.69
2023-05-21T10:46:46.646Z,31.87
2023-05-21T10:49:25.517Z,31.89
2023-05-21T10:51:58.018Z,32.14
2023-05-21T10:54:45.955Z,32.34
2023-05-21T10:57:21.661Z,32.46
2023-05-21T10:59:48.449Z,32.59
2023-05-21T11:02:15.638Z,32.80
2023-05-21T11:04:48.503Z,32.92
2023-05-21T11:07:16.384Z,32.95
2023-05-21T11:09:43.017Z,32.93
2023-05-21T11:12:09.804Z,32.83
2023-05-21T11:14:42.458Z,32.60
2023-05-21T11:17:15.294Z,32.34
2023-05-21T11:19:43.129Z,32.18
2023-05-21T11:22:19.689Z,32.13
2023-05-21T11:24:47.385Z,32.19
2023-05-21T11:27:37.010Z,32.26
2023-05-21T11:30:05.043Z,32.26
2023-05-21T11:32:39.490Z,31.97
2023-05-21T11:35:07.232Z,31.49
2023-05-21T11:37:35.496Z,31.21
2023-05-21T11:40:19.071Z,31.18
2023-05-21T11:42:51.418Z,31.43
2023-05-21T11:45:19.250Z,31.53
2023-05-21T11:47:47.932Z,31.54
2023-05-21T11:50:15.048Z,31.66
2023-05-21T11:52:42.092Z,31.80
2023-05-21T11:55:08.906Z,31.72
2023-05-21T11:57:36.387Z,31.51
2023-05-21T12:00:14.168Z,31.32
2023-05-21T12:02:49.083Z,31.27
2023-05-21T12:05:16.312Z,31.19
2023-05-21T12:07:49.321Z,31.14
2023-05-21T12:10:16.182Z,30.91
2023-05-21T12:12:53.860Z,30.58
2023-05-21T12:15:24.019Z,30.12
2023-05-21T12:17:52.141Z,29.76
2023-05-21T12:20:20.519Z,29.56
2023-05-21T12:22:50.251Z,29.39
2023-05-21T12:25:19.395Z,29.33
2023-05-21T12:27:48.357Z,29.23
2023-05-21T12:30:15.104Z,29.10
2023-05-21T12:32:44.463Z,29.00
2023-05-21T12:35:22.191Z,29.07
2023-05-21T12:37:50.034Z,29.41
2023-05-21T12:40:17.302Z,29.86
2023-05-21T12:42:43.950Z,30.26
2023-05-21T12:45:10.926Z,30.44
2023-05-21T12:47:37.562Z,30.56
2023-05-21T12:50:08.763Z,30.76
2023-05-21T12:52:35.455Z,30.91
2023-05-21T12:55:02.186Z,30.99
2023-05-21T12:57:36.852Z,30.99
2023-05-21T13:00:08.348Z,30.98
2023-05-21T13:02:48.144Z,30.69
2023-05-21T13:05:16.822Z,30.39
2023-05-21T13:07:46.335Z,30.05
2023-05-21T13:10:13.346Z,29.41
2023-05-21T13:12:42.934Z,28.73
2023-05-21T13:15:14.960Z,28.19
2023-05-21T13:17:41.871Z,27.74
2023-05-21T13:20:11.578Z,27.33
2023-05-21T13:22:47.744Z,26.91
2023-05-21T13:25:23.948Z,26.45
2023-05-21T13:27:51.398Z,26.04
2023-05-21T13:30:21.967Z,25.62
2023-05-21T13:32:50.682Z,25.25
2023-05-21T13:35:18.542Z,24.98
2023-05-21T13:37:45.807Z,24.68
2023-05-21T13:40:16.867Z,24.40
2023-05-21T13:42:45.898Z,24.16
2023-05-21T13:45:14.305Z,23.93
2023-05-21T13:47:42.009Z,23.76
2023-05-21T13:50:09.189Z,23.64
2023-05-21T13:52:36.610Z,23.63
2023-05-21T13:55:03.977Z,23.66
2023-05-21T13:57:30.910Z,23.62
2023-05-21T13:59:58.459Z,23.50
2023-05-21T14:02:25.330Z,23.35
2023-05-21T14:04:52.209Z,23.25
2023-05-21T14:07:18.940Z,23.12
2023-05-21T14:09:47.034Z,22.96
2023-05-21T14:12:13.746Z,22.74
2023-05-21T14:14:41.450Z,22.50
2023-05-21T14:17:08.043Z,22.28
2023-05-21T14:19:35.259Z,22.14
2023-05-21T14:22:02.110Z,22.04
2023-05-21T14:24:28.936Z,21.95
2023-05-21T14:26:55.517Z,21.86
2023-05-21T14:29:22.195Z,21.72
2023-05-21T14:31:48.978Z,21.56
2023-05-21T14:34:16.144Z,21.36
2023-05-21T14:36:42.799Z,21.22
2023-05-21T14:39:09.573Z,21.07
2023-05-21T14:41:38.316Z,20.96
2023-05-21T14:44:04.904Z,20.89
2023-05-21T14:46:31.785Z,20.82
2023-05-21T14:48:59.667Z,20.73
2023-05-21T14:51:26.778Z,20.64
2023-05-21T14:53:54.015Z,20.57
2023-05-21T14:56:21.324Z,20.54
2023-05-21T14:58:47.950Z,20.51
2023-05-21T15:01:14.586Z,20.45
2023-05-21T15:03:41.581Z,20.35
2023-05-21T15:06:08.306Z,20.28
2023-05-21T15:08:35.201Z,20.21
2023-05-21T15:11:01.879Z,20.13
2023-05-21T15:13:29.187Z,20.04
2023-05-21T15:15:56.494Z,19.95
2023-05-21T15:18:24.208Z,19.90
2023-05-21T15:20:50.891Z,19.87
2023-05-21T15:23:18.120Z,19.81
2023-05-21T15:25:45.166Z,19.76
2023-05-21T15:28:12.212Z,19.73
2023-05-21T15:30:39.630Z,19.71
2023-05-21T15:33:06.342Z,19.69
2023-05-21T15:35:34.921Z,19.64
2023-05-21T15:38:02.105Z,19.59
2023-05-21T15:40:28.964Z,19.55
2023-05-21T15:42:55.820Z,19.49
2023-05-21T15:45:23.745Z,19.45
2023-05-21T15:47:50.821Z,19.43
2023-05-21T15:50:17.547Z,19.41
2023-05-21T15:52:44.129Z,19.40
2023-05-21T15:55:10.896Z,19.39
2023-05-21T15:57:37.554Z,19.38
2023-05-21T16:00:04.791Z,19.37
2023-05-21T16:02:37.684Z,19.35
2023-05-21T16:05:06.994Z,19.33
2023-05-21T16:07:35.124Z,19.27
2023-05-21T16:10:04.103Z,19.22
2023-05-21T16:12:31.230Z,19.18
2023-05-21T16:14:58.026Z,19.17
2023-05-21T16:17:25.105Z,19.17
2023-05-21T16:19:52.151Z,19.16
2023-05-21T16:22:22.640Z,19.13
2023-05-21T16:24:49.950Z,19.11
2023-05-21T16:27:16.719Z,19.09
2023-05-21T16:29:43.839Z,19.08
2023-05-21T16:32:12.623Z,19.02
2023-05-21T16:34:39.533Z,18.99
2023-05-21T16:37:45.168Z,18.99
2023-05-21T16:40:13.050Z,18.94
2023-05-21T16:42:40.646Z,18.90
2023-05-21T16:45:08.611Z,18.86
2023-05-21T16:47:35.626Z,18.84
2023-05-21T16:50:02.571Z,18.83
2023-05-21T16:52:29.541Z,18.80
2023-05-21T16:54:56.812Z,18.76
2023-05-21T16:57:23.831Z,18.71
2023-05-21T16:59:50.770Z,18.66
2023-05-21T17:02:17.804Z,18.62
2023-05-21T17:04:44.736Z,18.58
2023-05-21T17:07:11.752Z,18.55
2023-05-21T17:09:38.912Z,18.52
2023-05-21T17:12:06.345Z,18.48
2023-05-21T17:14:35.425Z,18.43
2023-05-21T17:17:03.666Z,18.40
2023-05-21T17:19:30.875Z,18.35
2023-05-21T17:21:58.051Z,18.31
2023-05-21T17:24:24.972Z,18.27
2023-05-21T17:26:53.100Z,18.24
2023-05-21T17:29:20.017Z,18.19
2023-05-21T17:31:46.959Z,18.15
2023-05-21T17:34:13.770Z,18.12
2023-05-21T17:36:40.624Z,18.07
2023-05-21T17:39:07.580Z,18.03
2023-05-21T17:41:34.921Z,17.99
2023-05-21T17:44:02.364Z,17.95
2023-05-21T17:46:29.211Z,17.90
2023-05-21T17:48:56.219Z,17.87
2023-05-21T17:51:23.245Z,17.82
2023-05-21T17:53:50.108Z,17.79
2023-05-21T17:56:17.110Z,17.75
2023-05-21T17:58:43.962Z,17.71
2023-05-21T18:01:11.546Z,17.67
2023-05-21T18:03:38.426Z,17.62
2023-05-21T18:06:07.426Z,17.56
2023-05-21T18:08:35.774Z,17.51
2023-05-21T18:11:02.584Z,17.47
2023-05-21T18:13:29.789Z,17.43
2023-05-21T18:15:56.827Z,17.40
2023-05-21T18:18:23.626Z,17.37
2023-05-21T18:20:51.730Z,17.34
2023-05-21T18:23:18.598Z,17.31
2023-05-21T18:25:45.544Z,17.28
2023-05-21T18:28:12.504Z,17.24
2023-05-21T18:30:39.469Z,17.21
2023-05-21T18:33:08.535Z,17.18
2023-05-21T18:35:35.453Z,17.14
2023-05-21T18:38:04.165Z,17.11
2023-05-21T18:40:33.298Z,17.08
2023-05-21T18:43:00.813Z,17.04
2023-05-21T18:45:27.966Z,16.99
2023-05-21T18:47:56.970Z,16.95
2023-05-21T18:50:23.783Z,16.91
2023-05-21T18:52:53.409Z,16.88
2023-05-21T18:55:20.422Z,16.83
2023-05-21T18:57:47.401Z,16.77
2023-05-21T19:00:14.398Z,16.71
2023-05-21T19:02:43.177Z,16.61
2023-05-21T19:05:10.202Z,16.50
2023-05-21T19:07:37.077Z,16.40
2023-05-21T19:10:04.471Z,16.33
2023-05-21T19:12:31.544Z,16.26
2023-05-21T19:14:58.501Z,16.17
2023-05-21T19:17:25.522Z,16.08
2023-05-21T19:19:56.014Z,16.00
2023-05-21T19:22:24.269Z,15.95
2023-05-21T19:24:51.215Z,15.90
2023-05-21T19:27:18.590Z,15.86
2023-05-21T19:29:45.583Z,15.82
2023-05-21T19:32:12.555Z,15.79
2023-05-21T19:34:39.462Z,15.77
2023-05-21T19:37:07.236Z,15.74
2023-05-21T19:39:38.339Z,15.70
2023-05-21T19:42:05.575Z,15.67
2023-05-21T19:44:32.438Z,15.64
2023-05-21T19:47:00.160Z,15.60
2023-05-21T19:49:27.381Z,15.56
2023-05-21T19:51:55.051Z,15.49
2023-05-21T19:54:22.709Z,15.42
2023-05-21T19:56:49.858Z,15.38
2023-05-21T19:59:16.757Z,15.33
2023-05-21T20:01:44.306Z,15.28
2023-05-21T20:04:11.523Z,15.23
2023-05-21T20:06:38.465Z,15.19
2023-05-21T20:09:05.972Z,15.12
2023-05-21T20:11:33.166Z,15.06
2023-05-21T20:14:02.102Z,15.01
2023-05-21T20:16:30.001Z,14.98
2023-05-21T20:18:58.444Z,14.96
2023-05-21T20:21:25.623Z,14.92
2023-05-21T20:23:53.085Z,14.89
2023-05-21T20:26:19.972Z,14.85
2023-05-21T20:28:46.826Z,14.81
2023-05-21T20:31:13.855Z,14.75
2023-05-21T20:33:43.623Z,14.70
2023-05-21T20:36:11.451Z,14.68
2023-05-21T20:38:38.511Z,14.65
2023-05-21T20:41:05.557Z,14.62
2023-05-21T20:43:33.036Z,14.58
2023-05-21T20:46:00.032Z,14.54
2023-05-21T20:48:29.216Z,14.51
2023-05-21T20:50:57.583Z,14.46
2023-05-21T20:53:25.218Z,14.43
2023-05-21T20:55:54.708Z,14.41
2023-05-21T20:58:22.692Z,14.40
2023-05-21T21:00:50.400Z,14.38
2023-05-21T21:03:18.589Z,14.34
2023-05-21T21:05:45.503Z,14.29
2023-05-21T21:08:12.392Z,14.23
2023-05-21T21:10:41.715Z,14.20
2023-05-21T21:13:09.125Z,14.15
2023-05-21T21:15:36.488Z,14.12
2023-05-21T21:18:03.557Z,14.11
2023-05-21T21:20:31.165Z,14.10
2023-05-21T21:22:57.912Z,14.08
2023-05-21T21:25:24.714Z,14.08
2023-05-21T21:27:51.613Z,14.08
2023-05-21T21:30:19.154Z,14.08
2023-05-21T21:32:47.765Z,14.07
2023-05-21T21:35:14.752Z,14.04
2023-05-21T21:37:41.629Z,14.01
2023-05-21T21:40:09.289Z,13.95
2023-05-21T21:42:36.485Z,13.90
2023-05-21T21:45:05.939Z,13.85
2023-05-21T21:47:33.745Z,13.83
2023-05-21T21:50:01.186Z,13.81
2023-05-21T21:52:28.115Z,13.78
2023-05-21T21:54:57.976Z,13.76
2023-05-21T21:57:27.513Z,13.75
2023-05-21T21:59:54.428Z,13.74
2023-05-21T22:02:21.281Z,13.75
2023-05-21T22:04:48.171Z,13.76
2023-05-21T22:07:18.489Z,13.77
2023-05-21T22:09:45.789Z,13.78
2023-05-21T22:12:12.928Z,13.79
2023-05-21T22:14:39.775Z,13.82
2023-05-21T22:17:08.493Z,13.84
2023-05-21T22:19:35.981Z,13.86
2023-05-21T22:22:04.512Z,13.87
2023-05-21T22:24:33.206Z,13.89
2023-05-21T22:27:00.615Z,13.91
2023-05-21T22:29:27.481Z,13.91
2023-05-21T22:31:54.296Z,13.91
2023-05-21T22:34:22.299Z,13.90
2023-05-21T22:36:49.093Z,13.90
2023-05-21T22:39:15.944Z,13.92
2023-05-21T22:41:42.702Z,13.93
2023-05-21T22:44:09.590Z,13.94
2023-05-21T22:46:36.556Z,13.95
2023-05-21T22:49:03.470Z,13.95
2023-05-21T22:51:37.665Z,13.92
2023-05-21T22:54:04.854Z,13.89
2023-05-21T22:56:31.668Z,13.87
2023-05-21T22:59:00.341Z,13.83
2023-05-21T23:01:27.348Z,13.79
2023-05-21T23:03:54.270Z,13.76
2023-05-21T23:06:21.058Z,13.74
2023-05-21T23:08:47.908Z,13.71
2023-05-21T23:11:14.793Z,13.71
2023-05-21T23:13:41.636Z,13.69
2023-05-21T23:16:08.667Z,13.66
2023-05-21T23:18:35.465Z,13.61
2023-05-21T23:21:02.507Z,13.53
2023-05-21T23:23:29.528Z,13.48
2023-05-21T23:25:57.822Z,13.44
2023-05-21T23:28:25.567Z,13.38
2023-05-21T23:30:52.468Z,13.32
2023-05-21T23:33:19.554Z,13.26
2023-05-21T23:35:46.407Z,13.18
2023-05-21T23:38:13.311Z,13.10
2023-05-21T23:40:40.495Z,13.06
2023-05-21T23:43:07.675Z,12.98
2023-05-21T23:45:34.546Z,12.85
2023-05-21T23:48:01.511Z,12.74
2023-05-21T23:50:28.424Z,12.68
2023-05-21T23:52:55.376Z,12.64
2023-05-21T23:55:22.233Z,12.61
2023-05-21T23:57:49.114Z,12.59
